Terminal Aerodrome Forecast
Issued by NWS Austin/San Antonio, TX

Current Version | Previous Version | Text Only | Print | Product List | Glossary On
Versions: 1 2 3 4 5 6 7 8 9 10 11 12 13 14 15 16 17 18 19 20 21 22 23
000
FTUS44 KEWX 251136
TAFAUS
TAF
KAUS 251136Z 2512/2618 16005KT P6SM FEW020 BKN080
     FM251400 32005KT P6SM SCT250
     FM252200 22005KT P6SM SCT250
     FM260900 19005KT 3SM BR OVC025
     FM261500 18005KT P6SM OVC040=

USA.gov is the U.S. government's official web portal to all federal, state and local government web resources and services.